createdAt,value
2022-12-24T00:01:40.495Z,39.02
2022-12-24T00:04:07.005Z,39.19
2022-12-24T00:06:33.728Z,38.87
2022-12-24T00:09:00.357Z,39.04
2022-12-24T00:11:26.840Z,39.11
2022-12-24T00:13:53.348Z,39.00
2022-12-24T00:16:19.920Z,38.91
2022-12-24T00:18:47.290Z,38.98
2022-12-24T00:21:15.152Z,39.22
2022-12-24T00:23:41.632Z,39.18
2022-12-24T00:26:08.131Z,39.16
2022-12-24T00:28:34.590Z,38.91
2022-12-24T00:31:07.476Z,38.97
2022-12-24T00:33:34.054Z,39.22
2022-12-24T00:36:00.519Z,39.28
2022-12-24T00:38:27.008Z,39.15
2022-12-24T00:41:01.677Z,39.21
2022-12-24T00:43:28.866Z,39.04
2022-12-24T00:45:55.342Z,38.97
2022-12-24T00:48:22.876Z,38.86
2022-12-24T00:50:50.263Z,39.00
2022-12-24T00:53:17.298Z,39.17
2022-12-24T00:55:43.914Z,38.95
2022-12-24T00:58:11.417Z,39.01
2022-12-24T01:00:37.878Z,38.88
2022-12-24T01:03:04.394Z,39.09
2022-12-24T01:05:30.908Z,38.85
2022-12-24T01:07:57.381Z,38.82
2022-12-24T01:10:23.832Z,38.95
2022-12-24T01:12:50.332Z,38.89
2022-12-24T01:15:16.887Z,38.83
2022-12-24T01:17:43.407Z,39.12
2022-12-24T01:20:13.464Z,38.78
2022-12-24T01:22:39.919Z,39.09
2022-12-24T01:25:06.592Z,39.05
2022-12-24T01:27:33.211Z,38.73
2022-12-24T01:29:59.680Z,38.86
2022-12-24T01:32:26.130Z,38.75
2022-12-24T01:34:52.594Z,38.82
2022-12-24T01:37:19.055Z,38.98
2022-12-24T01:39:45.507Z,38.76
2022-12-24T01:42:40.497Z,38.94
2022-12-24T01:45:45.159Z,38.85
2022-12-24T01:48:16.685Z,38.65
2022-12-24T01:51:20.878Z,38.76
2022-12-24T01:53:48.349Z,38.80
2022-12-24T01:56:14.796Z,38.73
2022-12-24T01:58:43.147Z,38.66
2022-12-24T02:01:09.603Z,38.71
2022-12-24T02:03:36.280Z,38.69
2022-12-24T02:06:02.757Z,38.63
2022-12-24T02:08:40.012Z,38.72
2022-12-24T02:11:17.250Z,38.91
2022-12-24T02:13:46.083Z,38.87
2022-12-24T02:16:37.557Z,38.70
2022-12-24T02:19:16.038Z,38.76
2022-12-24T02:22:02.463Z,38.83
2022-12-24T02:24:32.634Z,38.85
2022-12-24T02:27:20.269Z,38.73
2022-12-24T02:30:08.844Z,38.82
2022-12-24T02:32:47.348Z,38.83
2022-12-24T02:35:42.591Z,38.76
2022-12-24T02:38:20.539Z,38.51
2022-12-24T02:40:50.804Z,38.75
2022-12-24T02:43:23.053Z,38.58
2022-12-24T02:45:58.716Z,38.79
2022-12-24T02:48:25.734Z,38.57
2022-12-24T02:51:03.633Z,38.68
2022-12-24T02:53:30.511Z,38.65
2022-12-24T02:56:03.939Z,38.58
2022-12-24T02:59:04.441Z,38.64
2022-12-24T03:02:03.190Z,38.77
2022-12-24T03:04:45.956Z,38.70
2022-12-24T03:07:21.800Z,38.65
2022-12-24T03:09:57.263Z,38.66
2022-12-24T03:12:28.414Z,38.72
2022-12-24T03:14:54.859Z,38.52
2022-12-24T03:17:21.275Z,38.46
2022-12-24T03:19:47.695Z,38.59
2022-12-24T03:22:14.171Z,38.55
2022-12-24T03:24:40.635Z,38.61
2022-12-24T03:27:07.055Z,38.51
2022-12-24T03:29:33.492Z,38.63
2022-12-24T03:32:01.182Z,38.47
2022-12-24T03:34:27.662Z,38.47
2022-12-24T03:36:54.075Z,38.55
2022-12-24T03:39:20.494Z,38.68
2022-12-24T03:41:46.943Z,38.51
2022-12-24T03:44:13.354Z,38.50
2022-12-24T03:46:39.782Z,38.35
2022-12-24T03:49:06.215Z,38.42
2022-12-24T03:51:33.495Z,38.52
2022-12-24T03:54:00.010Z,38.43
2022-12-24T03:56:26.472Z,38.50
2022-12-24T03:58:53.511Z,38.47
2022-12-24T04:01:20.038Z,38.50
2022-12-24T04:03:46.582Z,38.59
2022-12-24T04:06:14.752Z,38.47
2022-12-24T04:08:41.441Z,38.55
2022-12-24T04:11:10.120Z,38.46
2022-12-24T04:13:36.763Z,38.49
2022-12-24T04:16:05.557Z,38.41
2022-12-24T04:18:32.010Z,38.46
2022-12-24T04:20:58.466Z,38.43
2022-12-24T04:23:24.922Z,38.39
2022-12-24T04:25:51.347Z,38.40
2022-12-24T04:28:17.881Z,38.44
2022-12-24T04:30:44.366Z,38.42
2022-12-24T04:33:10.800Z,38.39
2022-12-24T04:35:41.316Z,38.25
2022-12-24T04:38:08.738Z,38.36
2022-12-24T04:40:35.228Z,38.48
2022-12-24T04:43:01.677Z,38.36
2022-12-24T04:45:28.129Z,38.49
2022-12-24T04:47:54.570Z,38.48
2022-12-24T04:50:21.249Z,38.52
2022-12-24T04:52:47.677Z,38.50
2022-12-24T04:55:14.101Z,38.45
2022-12-24T04:57:40.600Z,38.34
2022-12-24T05:00:09.281Z,38.36
2022-12-24T05:02:35.919Z,38.38
2022-12-24T05:05:03.202Z,38.43
2022-12-24T05:07:29.937Z,38.44
2022-12-24T05:09:56.483Z,38.37
2022-12-24T05:12:23.361Z,38.55
2022-12-24T05:14:49.824Z,38.39
2022-12-24T05:17:16.305Z,38.10
2022-12-24T05:19:42.768Z,38.39
2022-12-24T05:22:27.882Z,38.20
2022-12-24T05:25:12.686Z,38.35
2022-12-24T05:27:39.116Z,38.33
2022-12-24T05:30:06.201Z,38.27
2022-12-24T05:32:32.658Z,38.30
2022-12-24T05:34:59.112Z,38.52
2022-12-24T05:37:25.537Z,38.37
2022-12-24T05:39:51.965Z,38.46
2022-12-24T05:42:18.383Z,38.47
2022-12-24T05:44:44.797Z,38.25
2022-12-24T05:47:11.250Z,38.23
2022-12-24T05:49:37.696Z,38.33
2022-12-24T05:52:04.382Z,38.46
2022-12-24T05:54:30.808Z,38.47
2022-12-24T05:56:57.250Z,38.34
2022-12-24T05:59:23.686Z,38.25
2022-12-24T06:01:50.205Z,38.32
2022-12-24T06:04:16.698Z,38.28
2022-12-24T06:06:43.405Z,38.05
2022-12-24T06:09:09.895Z,37.73
2022-12-24T06:11:36.317Z,37.76
2022-12-24T06:14:02.725Z,37.58
2022-12-24T06:16:29.202Z,37.54
2022-12-24T06:18:55.753Z,37.39
2022-12-24T06:21:22.302Z,37.19
2022-12-24T06:23:48.732Z,36.87
2022-12-24T06:26:17.286Z,37.05
2022-12-24T06:28:43.767Z,36.95
2022-12-24T06:31:12.173Z,37.02
2022-12-24T06:33:38.614Z,36.85
2022-12-24T06:36:15.032Z,37.38
2022-12-24T06:38:43.473Z,37.47
2022-12-24T06:41:09.952Z,37.65
2022-12-24T06:43:36.603Z,37.76
2022-12-24T06:46:03.537Z,37.65
2022-12-24T06:48:29.988Z,37.48
2022-12-24T06:50:56.406Z,37.13
2022-12-24T06:53:23.182Z,36.85
2022-12-24T06:55:49.619Z,36.95
2022-12-24T06:58:16.047Z,36.61
2022-12-24T07:00:42.474Z,36.97
2022-12-24T07:03:08.888Z,36.71
2022-12-24T07:05:35.312Z,36.64
2022-12-24T07:08:01.981Z,36.73
2022-12-24T07:10:28.633Z,36.60
2022-12-24T07:12:55.061Z,36.84
2022-12-24T07:15:21.468Z,36.63
2022-12-24T07:17:48.245Z,36.79
2022-12-24T07:20:15.045Z,36.96
2022-12-24T07:22:42.223Z,36.95
2022-12-24T07:25:09.092Z,36.87
2022-12-24T07:27:35.750Z,36.72
2022-12-24T07:30:02.282Z,36.90
2022-12-24T07:32:28.688Z,36.77
2022-12-24T07:34:55.112Z,36.85
2022-12-24T07:37:21.535Z,36.75
2022-12-24T07:39:47.999Z,36.72
2022-12-24T07:42:14.611Z,36.89
2022-12-24T07:44:41.042Z,36.80
2022-12-24T07:47:07.546Z,36.64
2022-12-24T07:49:34.826Z,36.83
2022-12-24T07:52:01.257Z,36.39
2022-12-24T07:54:27.666Z,36.42
2022-12-24T07:56:54.762Z,36.42
2022-12-24T07:59:21.244Z,36.30
2022-12-24T08:01:47.810Z,36.16
2022-12-24T08:04:14.482Z,36.54
2022-12-24T08:06:40.952Z,36.44
2022-12-24T08:09:07.402Z,36.33
2022-12-24T08:11:33.836Z,36.17
2022-12-24T08:14:00.255Z,36.41
2022-12-24T08:16:26.749Z,36.45
2022-12-24T08:18:53.217Z,36.27
2022-12-24T08:21:19.646Z,36.57
2022-12-24T08:23:46.807Z,36.60
2022-12-24T08:26:13.619Z,36.51
2022-12-24T08:28:40.034Z,36.70
2022-12-24T08:31:06.512Z,36.68
2022-12-24T08:33:32.987Z,36.82
2022-12-24T08:36:00.510Z,37.06
2022-12-24T08:38:26.932Z,36.58
2022-12-24T08:40:53.820Z,36.98
2022-12-24T08:43:20.382Z,37.18
2022-12-24T08:45:47.604Z,37.32
2022-12-24T08:48:14.047Z,36.83
2022-12-24T08:50:40.828Z,37.12
2022-12-24T08:53:07.968Z,37.13
2022-12-24T08:55:34.438Z,37.00
2022-12-24T08:58:00.902Z,37.60
2022-12-24T09:00:27.500Z,37.08
2022-12-24T09:02:54.051Z,36.89
2022-12-24T09:05:20.564Z,36.98
2022-12-24T09:07:47.144Z,36.96
2022-12-24T09:10:13.617Z,36.84
2022-12-24T09:12:40.104Z,36.71
2022-12-24T09:15:08.105Z,36.69
2022-12-24T09:17:36.021Z,36.77
2022-12-24T09:20:03.819Z,36.93
2022-12-24T09:22:30.276Z,36.97
2022-12-24T09:24:56.792Z,36.72
2022-12-24T09:27:23.280Z,36.68
2022-12-24T09:29:50.028Z,36.74
2022-12-24T09:32:16.607Z,36.84
2022-12-24T09:34:43.130Z,36.75
2022-12-24T09:37:09.598Z,36.51
2022-12-24T09:39:36.062Z,36.76
2022-12-24T09:42:18.947Z,36.74
2022-12-24T09:44:53.217Z,36.95
2022-12-24T09:47:27.230Z,36.77
2022-12-24T09:49:53.771Z,36.90
2022-12-24T09:52:29.826Z,36.76
2022-12-24T09:55:27.120Z,36.70
2022-12-24T09:57:54.040Z,36.83
2022-12-24T10:00:24.543Z,36.73
2022-12-24T10:02:51.216Z,36.67
2022-12-24T10:05:18.402Z,37.02
2022-12-24T10:08:03.136Z,37.02
2022-12-24T10:10:35.204Z,37.02
2022-12-24T10:13:04.583Z,36.80
2022-12-24T10:15:37.367Z,36.54
2022-12-24T10:18:09.719Z,36.79
2022-12-24T10:20:42.279Z,36.61
2022-12-24T10:23:16.928Z,36.85
2022-12-24T10:26:02.133Z,36.62
2022-12-24T10:28:32.140Z,36.69
2022-12-24T10:31:00.758Z,36.70
2022-12-24T10:33:40.526Z,36.52
2022-12-24T10:36:12.207Z,36.50
2022-12-24T10:38:39.111Z,36.55
2022-12-24T10:41:05.685Z,36.68
2022-12-24T10:43:32.149Z,36.87
2022-12-24T10:46:01.235Z,37.25
2022-12-24T10:48:29.669Z,37.20
2022-12-24T10:51:25.463Z,37.66
2022-12-24T10:53:54.631Z,37.89
2022-12-24T10:56:21.577Z,37.69
2022-12-24T10:58:53.273Z,37.53
2022-12-24T11:01:42.484Z,37.66
2022-12-24T11:04:17.786Z,37.48
2022-12-24T11:06:55.043Z,37.71
2022-12-24T11:09:29.397Z,37.68
2022-12-24T11:11:56.802Z,37.64
2022-12-24T11:14:23.301Z,37.33
2022-12-24T11:16:54.175Z,37.62
2022-12-24T11:19:34.713Z,37.48
2022-12-24T11:22:05.966Z,37.51
2022-12-24T11:24:38.556Z,37.63
2022-12-24T11:27:31.449Z,37.37
2022-12-24T11:30:16.262Z,37.59
2022-12-24T11:32:43.599Z,37.68
2022-12-24T11:35:23.683Z,37.44
2022-12-24T11:38:12.149Z,37.52
2022-12-24T11:40:45.032Z,39.08
2022-12-24T11:43:19.013Z,38.50
2022-12-24T11:45:49.287Z,38.55
2022-12-24T11:48:30.308Z,38.36
2022-12-24T11:51:06.975Z,39.01
2022-12-24T11:53:46.371Z,38.64
2022-12-24T11:56:16.007Z,39.16
2022-12-24T11:58:52.309Z,38.84
2022-12-24T12:01:38.068Z,39.20
2022-12-24T12:04:13.278Z,38.72
2022-12-24T12:07:14.343Z,38.90
2022-12-24T12:09:46.271Z,38.53
2022-12-24T12:12:15.492Z,38.65
2022-12-24T12:15:05.702Z,39.06
2022-12-24T12:17:51.887Z,39.39
2022-12-24T12:20:33.027Z,39.41
2022-12-24T12:23:22.580Z,38.93
2022-12-24T12:25:55.322Z,39.10
2022-12-24T12:28:30.340Z,39.40
2022-12-24T12:31:06.980Z,39.09
2022-12-24T12:34:07.800Z,39.08
2022-12-24T12:37:14.242Z,39.06
2022-12-24T12:39:41.290Z,38.60
2022-12-24T12:42:28.379Z,39.01
2022-12-24T12:45:31.910Z,38.83
2022-12-24T12:48:24.426Z,38.51
2022-12-24T12:50:55.943Z,38.59
2022-12-24T12:53:32.373Z,38.83
2022-12-24T12:56:20.160Z,38.81
2022-12-24T12:58:58.597Z,38.92
2022-12-24T13:01:43.364Z,38.91
2022-12-24T13:04:41.304Z,38.81
2022-12-24T13:07:17.184Z,38.98
2022-12-24T13:10:06.536Z,38.93
2022-12-24T13:12:51.631Z,38.69
2022-12-24T13:15:30.288Z,38.88
2022-12-24T13:18:05.598Z,38.93
2022-12-24T13:20:32.855Z,39.20
2022-12-24T13:23:13.433Z,39.11
2022-12-24T13:25:50.150Z,39.31
2022-12-24T13:28:22.609Z,39.03
2022-12-24T13:30:50.195Z,39.30
2022-12-24T13:33:35.353Z,39.18
2022-12-24T13:36:14.043Z,39.41
2022-12-24T13:38:53.160Z,39.29
2022-12-24T13:41:38.220Z,39.43
2022-12-24T13:44:13.447Z,39.36
2022-12-24T13:47:00.548Z,39.25
2022-12-24T13:49:39.540Z,39.16
2022-12-24T13:52:11.997Z,38.87
2022-12-24T13:54:40.481Z,38.72
2022-12-24T13:57:42.130Z,39.01
2022-12-24T14:00:20.652Z,38.89
2022-12-24T14:02:57.819Z,38.39
2022-12-24T14:05:54.784Z,38.81
2022-12-24T14:08:23.859Z,38.77
2022-12-24T14:10:58.319Z,38.41
2022-12-24T14:13:54.970Z,38.58
2022-12-24T14:16:23.740Z,38.49
2022-12-24T14:18:58.169Z,38.81
2022-12-24T14:21:32.959Z,38.94
2022-12-24T14:24:07.746Z,39.09
2022-12-24T14:26:38.001Z,39.18
2022-12-24T14:29:11.640Z,38.90
2022-12-24T14:31:38.180Z,39.31
2022-12-24T14:34:09.177Z,40.26
2022-12-24T14:36:35.690Z,40.04
2022-12-24T14:39:02.189Z,40.21
2022-12-24T14:41:36.041Z,40.35
2022-12-24T14:44:08.563Z,40.42
2022-12-24T14:46:56.260Z,40.63
2022-12-24T14:49:46.735Z,40.54
2022-12-24T14:53:11.984Z,41.01
2022-12-24T14:55:44.399Z,41.42
2022-12-24T14:58:17.030Z,41.29
2022-12-24T15:00:43.541Z,40.97
2022-12-24T15:03:16.904Z,40.76
2022-12-24T15:05:43.752Z,40.57
2022-12-24T15:08:14.880Z,40.03
2022-12-24T15:13:28.832Z,39.85
2022-12-24T15:15:57.898Z,39.80
2022-12-24T15:20:57.217Z,39.73
2022-12-24T15:23:27.898Z,39.51
2022-12-24T15:26:16.001Z,39.58
2022-12-24T15:28:42.867Z,39.83
2022-12-24T15:31:22.908Z,39.56
2022-12-24T15:33:51.158Z,39.45
2022-12-24T15:36:29.439Z,39.30
2022-12-24T15:38:57.017Z,39.12
2022-12-24T15:42:02.887Z,39.41
2022-12-24T15:44:35.261Z,39.26
2022-12-24T15:47:02.231Z,38.99
2022-12-24T15:49:29.071Z,39.17
2022-12-24T15:52:05.631Z,39.51
2022-12-24T15:54:32.181Z,39.29
2022-12-24T15:56:58.677Z,39.25
2022-12-24T15:59:36.069Z,39.62
2022-12-24T16:02:27.384Z,39.13
2022-12-24T16:04:54.684Z,39.26
2022-12-24T16:07:25.311Z,39.34
2022-12-24T16:09:51.761Z,39.28
2022-12-24T16:12:23.440Z,39.52
2022-12-24T16:14:55.180Z,39.27
2022-12-24T16:17:23.320Z,39.11
2022-12-24T16:19:54.951Z,38.84
2022-12-24T16:22:37.107Z,38.79
2022-12-24T16:25:22.739Z,38.74
2022-12-24T16:27:50.522Z,38.67
2022-12-24T16:30:17.127Z,38.35
2022-12-24T16:32:43.575Z,38.61
2022-12-24T16:35:23.631Z,38.61
2022-12-24T16:37:50.097Z,38.27
2022-12-24T16:40:20.559Z,38.45
2022-12-24T16:43:06.825Z,38.30
2022-12-24T16:45:33.312Z,38.51
2022-12-24T16:47:59.809Z,38.51
2022-12-24T16:50:26.331Z,38.42
2022-12-24T16:52:52.926Z,38.19
2022-12-24T16:55:19.412Z,38.14
2022-12-24T16:57:45.903Z,38.17
2022-12-24T17:00:18.015Z,38.02
2022-12-24T17:02:44.942Z,38.16
2022-12-24T17:05:11.594Z,38.07
2022-12-24T17:07:43.152Z,38.08
2022-12-24T17:10:11.486Z,37.88
2022-12-24T17:12:37.949Z,37.98
2022-12-24T17:15:04.611Z,37.80
2022-12-24T17:17:31.195Z,38.11
2022-12-24T17:19:57.774Z,37.93
2022-12-24T17:22:24.693Z,37.92
2022-12-24T17:24:51.150Z,37.77
2022-12-24T17:27:17.612Z,37.76
2022-12-24T17:29:44.081Z,37.62
2022-12-24T17:32:10.792Z,37.78
2022-12-24T17:34:37.427Z,37.59
2022-12-24T17:37:03.890Z,37.79
2022-12-24T17:39:30.588Z,37.68
2022-12-24T17:41:57.226Z,37.44
2022-12-24T17:44:23.806Z,37.72
2022-12-24T17:46:50.355Z,37.64
2022-12-24T17:49:16.874Z,37.61
2022-12-24T17:51:45.938Z,37.54
2022-12-24T17:54:12.846Z,37.57
2022-12-24T17:56:39.304Z,37.41
2022-12-24T17:59:07.993Z,37.48
2022-12-24T18:01:34.601Z,37.46
2022-12-24T18:04:01.893Z,37.38
2022-12-24T18:06:28.529Z,37.38
2022-12-24T18:08:55.044Z,37.52
2022-12-24T18:11:32.903Z,37.64
2022-12-24T18:14:00.886Z,37.71
2022-12-24T18:16:35.672Z,37.77
2022-12-24T18:19:02.519Z,37.73
2022-12-24T18:21:30.287Z,37.69
2022-12-24T18:23:56.840Z,37.85
2022-12-24T18:26:27.203Z,38.11
2022-12-24T18:28:54.322Z,38.30
2022-12-24T18:31:21.206Z,38.25
2022-12-24T18:33:48.953Z,38.15
2022-12-24T18:36:15.576Z,38.23
2022-12-24T18:38:42.031Z,38.64
2022-12-24T18:41:13.482Z,38.53
2022-12-24T18:43:41.237Z,38.38
2022-12-24T18:46:12.158Z,38.18
2022-12-24T18:48:38.738Z,38.14
2022-12-24T18:51:05.525Z,38.28
2022-12-24T18:53:32.024Z,38.16
2022-12-24T18:56:10.356Z,37.99
2022-12-24T18:58:37.924Z,37.85
2022-12-24T19:01:13.714Z,38.08
2022-12-24T19:03:40.331Z,37.89
2022-12-24T19:06:07.042Z,38.02
2022-12-24T19:11:19.999Z,37.99
2022-12-24T19:13:49.604Z,38.18
2022-12-24T19:16:16.364Z,38.48
2022-12-24T19:18:42.862Z,38.43
2022-12-24T19:21:12.066Z,38.38
2022-12-24T19:23:38.527Z,38.58
2022-12-24T19:26:05.406Z,38.67
2022-12-24T19:28:32.374Z,38.30
2022-12-24T19:31:05.904Z,38.31
2022-12-24T19:33:42.904Z,38.02
2022-12-24T19:36:13.982Z,37.71
2022-12-24T19:38:40.565Z,37.52
2022-12-24T19:41:12.532Z,37.80
2022-12-24T19:43:49.601Z,37.63
2022-12-24T19:46:17.826Z,37.58
2022-12-24T19:48:51.542Z,37.58
2022-12-24T19:51:18.717Z,37.49
2022-12-24T19:53:45.179Z,37.38
2022-12-24T19:56:14.939Z,37.60
2022-12-24T19:58:41.427Z,37.32
2022-12-24T20:01:15.564Z,37.38
2022-12-24T20:03:43.333Z,37.35
2022-12-24T20:06:09.797Z,37.54
2022-12-24T20:08:36.927Z,37.66
2022-12-24T20:11:07.199Z,37.54
2022-12-24T20:13:34.411Z,37.46
2022-12-24T20:16:11.990Z,37.45
2022-12-24T20:18:38.488Z,37.50
2022-12-24T20:21:06.814Z,37.50
2022-12-24T20:23:34.658Z,37.58
2022-12-24T20:26:02.844Z,37.41
2022-12-24T20:28:30.258Z,37.65
2022-12-24T20:30:56.730Z,37.45
2022-12-24T20:33:23.231Z,37.50
2022-12-24T20:35:49.931Z,37.76
2022-12-24T20:38:16.413Z,37.75
2022-12-24T20:40:44.063Z,37.45
2022-12-24T20:43:10.734Z,37.10
2022-12-24T20:45:38.021Z,37.14
2022-12-24T20:48:05.884Z,37.08
2022-12-24T20:50:32.434Z,37.05
2022-12-24T20:52:58.939Z,37.10
2022-12-24T20:55:25.424Z,36.86
2022-12-24T20:57:52.236Z,36.75
2022-12-24T21:00:19.846Z,36.98
2022-12-24T21:02:46.803Z,36.99
2022-12-24T21:05:13.477Z,36.78
2022-12-24T21:07:40.634Z,36.91
2022-12-24T21:10:07.589Z,36.86
2022-12-24T21:12:49.304Z,36.71
2022-12-24T21:15:32.311Z,36.77
2022-12-24T21:17:58.874Z,36.75
2022-12-24T21:20:30.661Z,36.80
2022-12-24T21:23:01.037Z,36.85
2022-12-24T21:25:27.880Z,36.91
2022-12-24T21:27:57.331Z,37.07
2022-12-24T21:30:23.934Z,37.39
2022-12-24T21:32:50.581Z,37.45
2022-12-24T21:35:17.267Z,37.32
2022-12-24T21:37:43.748Z,37.34
2022-12-24T21:40:10.797Z,37.38
2022-12-24T21:42:37.334Z,37.58
2022-12-24T21:45:04.628Z,37.66
2022-12-24T21:47:31.086Z,37.49
2022-12-24T21:50:16.127Z,37.62
2022-12-24T21:52:42.611Z,37.71
2022-12-24T21:55:09.104Z,38.30
2022-12-24T21:57:53.449Z,38.06
2022-12-24T22:00:24.156Z,38.25
2022-12-24T22:02:51.880Z,38.21
2022-12-24T22:05:18.644Z,38.07
2022-12-24T22:08:03.718Z,37.81
2022-12-24T22:10:49.162Z,37.89
2022-12-24T22:13:15.934Z,38.08
2022-12-24T22:15:47.468Z,37.85
2022-12-24T22:18:15.771Z,37.65
2022-12-24T22:20:42.487Z,37.72
2022-12-24T22:23:08.962Z,37.73
2022-12-24T22:25:36.265Z,37.88
2022-12-24T22:28:03.274Z,37.70
2022-12-24T22:30:29.840Z,37.81
2022-12-24T22:32:57.219Z,37.71
2022-12-24T22:35:23.680Z,37.58
2022-12-24T22:37:53.030Z,37.88
2022-12-24T22:40:22.402Z,37.83
2022-12-24T22:42:48.867Z,37.63
2022-12-24T22:45:21.816Z,37.82
2022-12-24T22:47:48.853Z,37.88
2022-12-24T22:50:15.320Z,37.42
2022-12-24T22:52:41.783Z,37.66
2022-12-24T22:55:08.589Z,37.30
2022-12-24T22:57:35.073Z,37.61
2022-12-24T23:00:01.541Z,37.52
2022-12-24T23:02:28.977Z,37.13
2022-12-24T23:04:55.755Z,37.11
2022-12-24T23:07:22.514Z,37.32
2022-12-24T23:09:49.172Z,37.42
2022-12-24T23:12:35.596Z,37.07
2022-12-24T23:15:02.225Z,37.25
2022-12-24T23:17:28.702Z,37.23
2022-12-24T23:19:55.207Z,37.19
2022-12-24T23:22:21.674Z,37.37
2022-12-24T23:24:48.127Z,37.31
2022-12-24T23:27:14.605Z,37.37
2022-12-24T23:29:41.174Z,37.27
2022-12-24T23:32:08.168Z,37.40
2022-12-24T23:34:34.643Z,37.54
2022-12-24T23:37:01.099Z,37.22
2022-12-24T23:39:27.554Z,37.34
2022-12-24T23:41:54.015Z,37.21
2022-12-24T23:44:20.463Z,37.39
2022-12-24T23:46:46.968Z,37.20
2022-12-24T23:49:14.643Z,37.30
2022-12-24T23:51:41.145Z,37.14
2022-12-24T23:54:07.592Z,37.17
2022-12-24T23:56:34.045Z,37.13
2022-12-24T23:59:01.887Z,37.19
